createdAt,value
2019-01-13T00:02:16.884Z,100015
2019-01-13T00:07:40.314Z,100023
2019-01-13T00:13:04.212Z,100022
2019-01-13T00:18:41.142Z,100034
2019-01-13T00:24:13.927Z,100034
2019-01-13T00:29:37.462Z,100037
2019-01-13T00:35:00.828Z,100033
2019-01-13T00:40:33.351Z,100045
2019-01-13T00:46:07.142Z,100036
2019-01-13T00:51:40.211Z,100028
2019-01-13T00:57:06.061Z,100025
2019-01-13T01:02:41.975Z,100026
2019-01-13T01:08:05.624Z,100018
2019-01-13T01:13:30.615Z,100020
2019-01-13T01:19:05.733Z,100023
2019-01-13T01:24:38.260Z,99999
2019-01-13T01:30:12.774Z,99994
2019-01-13T01:35:37.617Z,100006
2019-01-13T01:41:10.984Z,99997
2019-01-13T01:46:44.488Z,99998
2019-01-13T01:52:08.270Z,99993
2019-01-13T01:57:33.626Z,99976
2019-01-13T02:02:57.340Z,99975
2019-01-13T02:08:20.106Z,99966
2019-01-13T02:13:44.779Z,99971
2019-01-13T02:19:20.352Z,99964
2019-01-13T02:24:44.239Z,99952
2019-01-13T02:30:07.817Z,99939
2019-01-13T02:35:31.820Z,99943
2019-01-13T02:40:54.564Z,99963
2019-01-13T02:46:17.605Z,99954
2019-01-13T02:51:51.324Z,99959
2019-01-13T02:57:15.347Z,99945
2019-01-13T03:02:38.061Z,99938
2019-01-13T03:08:03.304Z,99948
2019-01-13T03:13:36.732Z,99930
2019-01-13T03:19:11.524Z,99931
2019-01-13T03:24:35.158Z,99921
2019-01-13T03:29:58.402Z,99914
2019-01-13T03:35:33.546Z,99897
2019-01-13T03:41:03.433Z,99888
2019-01-13T03:46:37.898Z,99892
2019-01-13T03:52:13.294Z,99863
2019-01-13T03:57:38.151Z,99862
2019-01-13T04:03:11.062Z,99861
2019-01-13T04:08:48.006Z,99860
2019-01-13T04:14:13.452Z,99837
2019-01-13T04:19:46.652Z,99831
2019-01-13T04:25:10.896Z,99827
2019-01-13T04:30:34.473Z,99817
2019-01-13T04:36:08.540Z,99801
2019-01-13T04:41:32.683Z,99781
2019-01-13T04:47:05.861Z,99778
2019-01-13T04:52:29.797Z,99759
2019-01-13T04:57:54.067Z,99762
2019-01-13T05:03:26.837Z,99757
2019-01-13T05:08:50.675Z,99728
2019-01-13T05:14:13.356Z,99727
2019-01-13T05:19:38.402Z,99724
2019-01-13T05:25:02.180Z,99729
2019-01-13T05:30:35.658Z,99721
2019-01-13T05:36:08.635Z,99719
2019-01-13T05:41:41.957Z,99710
2019-01-13T05:47:05.610Z,99700
2019-01-13T05:52:40.364Z,99690
2019-01-13T05:58:13.725Z,99676
2019-01-13T06:03:49.410Z,99661
2019-01-13T06:09:21.810Z,99655
2019-01-13T06:14:44.999Z,99635
2019-01-13T06:20:17.633Z,99630
2019-01-13T06:25:40.472Z,99609
2019-01-13T06:31:14.750Z,99607
2019-01-13T06:36:39.233Z,99596
2019-01-13T06:42:12.006Z,99589
2019-01-13T06:47:45.451Z,99570
2019-01-13T06:53:23.090Z,99567
2019-01-13T06:58:46.309Z,99557
2019-01-13T07:04:09.698Z,99553
2019-01-13T07:09:32.447Z,99546
2019-01-13T07:14:55.131Z,99542
2019-01-13T07:20:19.995Z,99533
2019-01-13T07:25:42.906Z,99506
2019-01-13T07:31:06.768Z,99507
2019-01-13T07:36:30.845Z,99499
2019-01-13T07:41:53.564Z,99494
2019-01-13T07:47:18.972Z,99484
2019-01-13T07:52:52.277Z,99485
2019-01-13T07:58:27.729Z,99474
2019-01-13T08:03:51.214Z,99459
2019-01-13T08:09:15.713Z,99450
2019-01-13T08:14:39.718Z,99448
2019-01-13T08:20:03.173Z,99443
2019-01-13T08:25:27.678Z,99437
2019-01-13T08:30:51.346Z,99424
2019-01-13T08:36:15.215Z,99418
2019-01-13T08:41:47.940Z,99405
2019-01-13T08:47:10.707Z,99398
2019-01-13T08:52:45.263Z,99387
2019-01-13T08:58:18.205Z,99385
2019-01-13T09:03:55.120Z,99368
2019-01-13T09:09:30.103Z,99357
2019-01-13T09:15:01.649Z,99351
2019-01-13T09:20:24.639Z,99344
2019-01-13T09:25:59.966Z,99343
2019-01-13T09:31:32.804Z,99341
2019-01-13T09:36:56.416Z,99333
2019-01-13T09:42:22.252Z,99326
2019-01-13T09:47:46.582Z,99319
2019-01-13T09:53:11.024Z,99323
2019-01-13T09:58:33.744Z,99315
2019-01-13T10:04:06.645Z,99314
2019-01-13T10:09:38.345Z,99293
2019-01-13T10:22:47.206Z,99298
2019-01-13T10:28:11.451Z,99274
2019-01-13T10:33:45.891Z,99261
2019-01-13T10:39:08.283Z,99263
2019-01-13T10:44:32.505Z,99266
2019-01-13T10:50:08.625Z,99251
2019-01-13T10:55:43.533Z,99253
2019-01-13T11:01:19.071Z,99241
2019-01-13T11:06:52.937Z,99237
2019-01-13T11:12:15.473Z,99218
2019-01-13T11:17:48.955Z,99209
2019-01-13T11:23:12.446Z,99200
2019-01-13T11:28:37.419Z,99192
2019-01-13T11:34:03.145Z,99174
2019-01-13T11:39:26.207Z,99168
2019-01-13T11:44:48.942Z,99150
2019-01-13T11:50:11.782Z,99164
2019-01-13T11:55:34.607Z,99142
2019-01-13T12:01:06.657Z,99127
2019-01-13T12:06:30.132Z,99126
2019-01-13T12:11:54.938Z,99127
2019-01-13T12:17:19.540Z,99091
2019-01-13T12:22:51.516Z,99097
2019-01-13T12:28:16.083Z,99073
2019-01-13T12:33:39.405Z,99089
2019-01-13T12:39:14.420Z,99078
2019-01-13T12:44:46.674Z,99057
2019-01-13T12:50:09.783Z,99039
2019-01-13T12:55:43.112Z,99022
2019-01-13T13:01:06.373Z,99014
2019-01-13T13:06:39.148Z,98987
2019-01-13T13:12:01.982Z,98992
2019-01-13T13:17:26.998Z,98987
2019-01-13T13:22:50.311Z,98968
2019-01-13T13:28:37.338Z,98962
2019-01-13T13:34:23.032Z,98967
2019-01-13T13:39:55.932Z,98951
2019-01-13T13:45:49.958Z,98947
2019-01-13T13:51:13.039Z,98941
2019-01-13T13:56:46.360Z,98960
2019-01-13T14:03:12.496Z,98955
2019-01-13T14:09:11.375Z,98939
2019-01-13T14:14:45.401Z,98936
2019-01-13T14:20:19.278Z,98925
2019-01-13T14:26:19.881Z,98926
2019-01-13T14:31:43.076Z,98913
2019-01-13T14:38:07.507Z,98920
2019-01-13T14:44:34.114Z,98896
2019-01-13T14:49:57.180Z,98907
2019-01-13T14:55:56.361Z,98891
2019-01-13T15:01:32.238Z,98896
2019-01-13T15:07:05.658Z,98888
2019-01-13T15:12:28.263Z,98904
2019-01-13T15:17:51.713Z,98902
2019-01-13T15:23:25.291Z,98889
2019-01-13T15:29:23.177Z,98882
2019-01-13T15:34:48.142Z,98867
2019-01-13T15:40:20.342Z,98875
2019-01-13T15:45:55.277Z,98870
2019-01-13T15:51:29.271Z,98865
2019-01-13T15:57:01.302Z,98869
2019-01-13T16:02:33.464Z,98870
2019-01-13T16:08:08.290Z,98870
2019-01-13T16:13:31.187Z,98867
2019-01-13T16:18:54.810Z,98870
2019-01-13T16:24:27.558Z,98867
2019-01-13T16:30:00.266Z,98856
2019-01-13T16:35:33.271Z,98848
2019-01-13T16:40:56.757Z,98843
2019-01-13T16:46:53.840Z,98842
2019-01-13T16:52:17.179Z,98849
2019-01-13T16:58:33.677Z,98861
2019-01-13T17:04:07.203Z,98846
2019-01-13T17:09:41.311Z,98834
2019-01-13T17:15:14.910Z,98850
2019-01-13T17:20:47.438Z,98842
2019-01-13T17:26:10.999Z,98841
2019-01-13T17:31:45.361Z,98854
2019-01-13T17:37:19.064Z,98851
2019-01-13T17:42:42.188Z,98850
2019-01-13T17:48:13.971Z,98855
2019-01-13T17:53:46.918Z,98862
2019-01-13T17:59:11.365Z,98861
2019-01-13T18:04:44.417Z,98860
2019-01-13T18:10:08.901Z,98859
2019-01-13T18:15:42.974Z,98861
2019-01-13T18:21:07.354Z,98890
2019-01-13T18:26:39.299Z,98875
2019-01-13T18:32:18.733Z,98888
2019-01-13T18:37:50.674Z,98891
2019-01-13T18:43:26.254Z,98888
2019-01-13T18:48:59.017Z,98884
2019-01-13T18:54:22.069Z,98884
2019-01-13T18:59:55.304Z,98881
2019-01-13T19:05:18.563Z,98900
2019-01-13T19:10:41.317Z,98898
2019-01-13T19:16:05.187Z,98900
2019-01-13T19:21:30.715Z,98910
2019-01-13T19:26:53.931Z,98908
2019-01-13T19:32:16.711Z,98948
2019-01-13T19:37:39.481Z,98914
2019-01-13T19:43:03.168Z,98968
2019-01-13T19:48:28.551Z,98947
2019-01-13T19:53:51.314Z,98947
2019-01-13T19:59:23.724Z,98942
2019-01-13T20:04:55.982Z,98958
2019-01-13T20:10:56.425Z,98941
2019-01-13T20:16:19.553Z,98953
2019-01-13T20:21:43.407Z,98953
2019-01-13T20:27:43.941Z,98956
2019-01-13T20:33:18.673Z,98987
2019-01-13T20:38:41.808Z,98989
2019-01-13T20:44:15.873Z,98998
2019-01-13T20:49:40.086Z,99001
2019-01-13T20:55:13.452Z,99000
2019-01-13T21:00:36.643Z,99016
2019-01-13T21:06:09.531Z,99008
2019-01-13T21:11:42.689Z,99005
2019-01-13T21:17:15.358Z,99002
2019-01-13T21:22:48.748Z,99019
2019-01-13T21:28:21.721Z,99031
2019-01-13T21:33:45.219Z,99036
2019-01-13T21:39:09.600Z,99023
2019-01-13T21:44:44.053Z,99033
2019-01-13T21:50:18.464Z,99031
2019-01-13T21:55:51.231Z,99044
2019-01-13T22:01:26.442Z,99039
2019-01-13T22:06:51.881Z,99036
2019-01-13T22:12:24.687Z,99032
2019-01-13T22:17:48.363Z,99039
2019-01-13T22:23:12.386Z,99042
2019-01-13T22:28:36.109Z,99051
2019-01-13T22:34:08.395Z,99049
2019-01-13T22:39:40.663Z,99060
2019-01-13T22:45:04.686Z,99062
2019-01-13T22:50:27.969Z,99072
2019-01-13T22:56:01.296Z,99073
2019-01-13T23:01:26.413Z,99078
2019-01-13T23:06:49.374Z,99091
2019-01-13T23:12:24.367Z,99113
2019-01-13T23:17:47.355Z,99110
2019-01-13T23:23:19.989Z,99121
2019-01-13T23:28:45.084Z,99131
2019-01-13T23:34:10.378Z,99151
2019-01-13T23:39:35.931Z,99154
2019-01-13T23:45:00.922Z,99154
2019-01-13T23:50:34.870Z,99176
2019-01-13T23:55:58.533Z,99180
